sensor_id;sensor_type;location;lat;lon;timestamp;temperature;humidity
5556;DHT22;2801;50.972;7.856;2023-04-10T00:00:35;0.50;99.90
5556;DHT22;2801;50.972;7.856;2023-04-10T00:03:03;0.30;99.90
5556;DHT22;2801;50.972;7.856;2023-04-10T00:05:32;0.30;99.90
5556;DHT22;2801;50.972;7.856;2023-04-10T00:07:59;0.30;99.90
5556;DHT22;2801;50.972;7.856;2023-04-10T00:10:26;0.30;99.90
5556;DHT22;2801;50.972;7.856;2023-04-10T00:12:56;0.30;99.90
5556;DHT22;2801;50.972;7.856;2023-04-10T00:15:24;0.20;99.90
5556;DHT22;2801;50.972;7.856;2023-04-10T00:17:51;0.20;99.90
5556;DHT22;2801;50.972;7.856;2023-04-10T00:20:21;0.20;99.90
5556;DHT22;2801;50.972;7.856;2023-04-10T00:22:49;0.10;99.90
5556;DHT22;2801;50.972;7.856;2023-04-10T00:25:16;0.10;99.90
5556;DHT22;2801;50.972;7.856;2023-04-10T00:27:43;0.10;99.90
5556;DHT22;2801;50.972;7.856;2023-04-10T00:30:10;0.10;99.90
5556;DHT22;2801;50.972;7.856;2023-04-10T00:32:37;0.10;99.90
5556;DHT22;2801;50.972;7.856;2023-04-10T00:35:05;0.10;99.90
5556;DHT22;2801;50.972;7.856;2023-04-10T00:37:34;0.10;99.90
5556;DHT22;2801;50.972;7.856;2023-04-10T00:40:01;0.10;99.90
5556;DHT22;2801;50.972;7.856;2023-04-10T00:42:29;0.10;99.90
5556;DHT22;2801;50.972;7.856;2023-04-10T00:44:55;0.10;99.90
5556;DHT22;2801;50.972;7.856;2023-04-10T00:47:22;0.10;99.90
5556;DHT22;2801;50.972;7.856;2023-04-10T00:49:50;0.10;99.90
5556;DHT22;2801;50.972;7.856;2023-04-10T00:52:18;0.10;99.90
5556;DHT22;2801;50.972;7.856;2023-04-10T00:54:45;0.20;99.90
5556;DHT22;2801;50.972;7.856;2023-04-10T00:57:13;0.00;99.90
5556;DHT22;2801;50.972;7.856;2023-04-10T00:59:40;0.10;99.90
5556;DHT22;2801;50.972;7.856;2023-04-10T01:02:07;0.10;99.90
5556;DHT22;2801;50.972;7.856;2023-04-10T01:04:36;0.20;99.90
5556;DHT22;2801;50.972;7.856;2023-04-10T01:07:27;0.10;99.90
5556;DHT22;2801;50.972;7.856;2023-04-10T01:13:22;0.10;99.90
5556;DHT22;2801;50.972;7.856;2023-04-10T01:16:13;0.30;99.90
5556;DHT22;2801;50.972;7.856;2023-04-10T01:21:56;0.10;99.90
5556;DHT22;2801;50.972;7.856;2023-04-10T01:27:57;0.10;99.90
5556;DHT22;2801;50.972;7.856;2023-04-10T01:30:36;0.10;99.90
5556;DHT22;2801;50.972;7.856;2023-04-10T01:33:05;0.10;99.90
5556;DHT22;2801;50.972;7.856;2023-04-10T01:35:41;0.20;99.90
5556;DHT22;2801;50.972;7.856;2023-04-10T01:38:11;0.10;99.90
5556;DHT22;2801;50.972;7.856;2023-04-10T01:40:40;0.10;99.90
5556;DHT22;2801;50.972;7.856;2023-04-10T01:43:15;0.10;99.90
5556;DHT22;2801;50.972;7.856;2023-04-10T01:45:44;0.10;99.90
5556;DHT22;2801;50.972;7.856;2023-04-10T01:48:13;0.10;99.90
5556;DHT22;2801;50.972;7.856;2023-04-10T01:50:45;0.10;99.90
5556;DHT22;2801;50.972;7.856;2023-04-10T01:53:12;0.10;99.90
5556;DHT22;2801;50.972;7.856;2023-04-10T01:55:41;0.30;99.90
5556;DHT22;2801;50.972;7.856;2023-04-10T01:58:09;0.10;99.90
5556;DHT22;2801;50.972;7.856;2023-04-10T02:00:41;0.10;99.90
5556;DHT22;2801;50.972;7.856;2023-04-10T02:03:09;0.10;99.90
5556;DHT22;2801;50.972;7.856;2023-04-10T02:05:47;0.00;99.90
5556;DHT22;2801;50.972;7.856;2023-04-10T02:08:47;0.00;99.90
5556;DHT22;2801;50.972;7.856;2023-04-10T02:14:35;0.00;99.90
5556;DHT22;2801;50.972;7.856;2023-04-10T02:17:07;0.00;99.90
5556;DHT22;2801;50.972;7.856;2023-04-10T02:19:36;0.10;99.90
5556;DHT22;2801;50.972;7.856;2023-04-10T02:22:04;0.10;99.90
5556;DHT22;2801;50.972;7.856;2023-04-10T02:24:32;0.10;99.90
5556;DHT22;2801;50.972;7.856;2023-04-10T02:27:01;0.20;99.90
5556;DHT22;2801;50.972;7.856;2023-04-10T02:29:28;0.20;99.90
5556;DHT22;2801;50.972;7.856;2023-04-10T02:31:55;0.20;99.90
5556;DHT22;2801;50.972;7.856;2023-04-10T02:34:22;0.20;99.90
5556;DHT22;2801;50.972;7.856;2023-04-10T02:36:48;0.20;99.90
5556;DHT22;2801;50.972;7.856;2023-04-10T02:39:16;0.20;99.90
5556;DHT22;2801;50.972;7.856;2023-04-10T02:41:42;0.30;99.90
5556;DHT22;2801;50.972;7.856;2023-04-10T02:44:09;0.30;99.90
5556;DHT22;2801;50.972;7.856;2023-04-10T02:46:37;0.30;99.90
5556;DHT22;2801;50.972;7.856;2023-04-10T02:49:04;0.40;99.90
5556;DHT22;2801;50.972;7.856;2023-04-10T02:51:34;0.60;99.90
5556;DHT22;2801;50.972;7.856;2023-04-10T02:54:02;0.40;99.90
5556;DHT22;2801;50.972;7.856;2023-04-10T02:56:32;0.40;99.90
5556;DHT22;2801;50.972;7.856;2023-04-10T02:59:00;0.50;99.90
5556;DHT22;2801;50.972;7.856;2023-04-10T03:01:27;0.40;99.90
5556;DHT22;2801;50.972;7.856;2023-04-10T03:03:54;0.40;99.90
5556;DHT22;2801;50.972;7.856;2023-04-10T03:06:22;0.40;99.90
5556;DHT22;2801;50.972;7.856;2023-04-10T03:08:52;0.50;99.90
5556;DHT22;2801;50.972;7.856;2023-04-10T03:11:20;0.60;99.90
5556;DHT22;2801;50.972;7.856;2023-04-10T03:13:47;0.50;99.90
5556;DHT22;2801;50.972;7.856;2023-04-10T03:16:15;0.60;99.90
5556;DHT22;2801;50.972;7.856;2023-04-10T03:18:45;0.70;99.90
5556;DHT22;2801;50.972;7.856;2023-04-10T03:21:12;0.80;99.90
5556;DHT22;2801;50.972;7.856;2023-04-10T03:23:39;0.80;99.90
5556;DHT22;2801;50.972;7.856;2023-04-10T03:26:07;0.80;99.90
5556;DHT22;2801;50.972;7.856;2023-04-10T03:28:34;0.70;99.90
5556;DHT22;2801;50.972;7.856;2023-04-10T03:31:02;0.70;99.90
5556;DHT22;2801;50.972;7.856;2023-04-10T03:33:30;0.60;99.90
5556;DHT22;2801;50.972;7.856;2023-04-10T03:35:57;0.60;99.90
5556;DHT22;2801;50.972;7.856;2023-04-10T03:38:24;0.60;99.90
5556;DHT22;2801;50.972;7.856;2023-04-10T03:40:51;0.50;99.90
5556;DHT22;2801;50.972;7.856;2023-04-10T03:43:19;0.50;99.90
5556;DHT22;2801;50.972;7.856;2023-04-10T03:45:46;0.50;99.90
5556;DHT22;2801;50.972;7.856;2023-04-10T03:48:13;0.40;99.90
5556;DHT22;2801;50.972;7.856;2023-04-10T03:50:40;0.40;99.90
5556;DHT22;2801;50.972;7.856;2023-04-10T03:53:07;0.40;99.90
5556;DHT22;2801;50.972;7.856;2023-04-10T03:55:34;0.40;99.90
5556;DHT22;2801;50.972;7.856;2023-04-10T03:58:02;0.30;99.90
5556;DHT22;2801;50.972;7.856;2023-04-10T04:00:31;0.30;99.90
5556;DHT22;2801;50.972;7.856;2023-04-10T04:02:58;0.30;99.90
5556;DHT22;2801;50.972;7.856;2023-04-10T04:05:26;0.30;99.90
5556;DHT22;2801;50.972;7.856;2023-04-10T04:07:53;0.30;99.90
5556;DHT22;2801;50.972;7.856;2023-04-10T04:10:20;0.40;99.90
5556;DHT22;2801;50.972;7.856;2023-04-10T04:12:47;0.30;99.90
5556;DHT22;2801;50.972;7.856;2023-04-10T04:15:15;0.20;99.90
5556;DHT22;2801;50.972;7.856;2023-04-10T04:17:42;0.20;99.90
5556;DHT22;2801;50.972;7.856;2023-04-10T04:20:11;0.10;99.90
5556;DHT22;2801;50.972;7.856;2023-04-10T04:22:39;0.10;99.90
5556;DHT22;2801;50.972;7.856;2023-04-10T04:25:07;0.20;99.90
5556;DHT22;2801;50.972;7.856;2023-04-10T04:27:37;0.50;99.90
5556;DHT22;2801;50.972;7.856;2023-04-10T04:30:04;0.70;99.90
5556;DHT22;2801;50.972;7.856;2023-04-10T04:32:32;0.80;99.90
5556;DHT22;2801;50.972;7.856;2023-04-10T04:34:59;0.90;99.90
5556;DHT22;2801;50.972;7.856;2023-04-10T04:37:26;0.90;99.90
5556;DHT22;2801;50.972;7.856;2023-04-10T04:39:53;1.10;99.90
5556;DHT22;2801;50.972;7.856;2023-04-10T04:42:20;0.90;99.90
5556;DHT22;2801;50.972;7.856;2023-04-10T04:44:48;0.90;99.90
5556;DHT22;2801;50.972;7.856;2023-04-10T04:47:16;1.00;99.90
5556;DHT22;2801;50.972;7.856;2023-04-10T04:49:43;1.00;99.90
5556;DHT22;2801;50.972;7.856;2023-04-10T04:52:10;1.00;99.90
5556;DHT22;2801;50.972;7.856;2023-04-10T04:54:37;1.10;99.90
5556;DHT22;2801;50.972;7.856;2023-04-10T04:57:04;1.20;99.90
5556;DHT22;2801;50.972;7.856;2023-04-10T04:59:31;1.30;99.90
5556;DHT22;2801;50.972;7.856;2023-04-10T05:01:58;1.50;99.90
5556;DHT22;2801;50.972;7.856;2023-04-10T05:04:25;1.60;99.90
5556;DHT22;2801;50.972;7.856;2023-04-10T05:06:52;2.00;99.90
5556;DHT22;2801;50.972;7.856;2023-04-10T05:09:19;2.30;99.90
5556;DHT22;2801;50.972;7.856;2023-04-10T05:11:46;2.50;99.90
5556;DHT22;2801;50.972;7.856;2023-04-10T05:14:13;2.80;99.90
5556;DHT22;2801;50.972;7.856;2023-04-10T05:16:40;3.10;99.90
5556;DHT22;2801;50.972;7.856;2023-04-10T05:19:07;3.30;99.90
5556;DHT22;2801;50.972;7.856;2023-04-10T05:21:34;3.50;99.90
5556;DHT22;2801;50.972;7.856;2023-04-10T05:24:03;3.90;99.90
5556;DHT22;2801;50.972;7.856;2023-04-10T05:26:30;4.40;99.90
5556;DHT22;2801;50.972;7.856;2023-04-10T05:28:57;4.80;99.90
5556;DHT22;2801;50.972;7.856;2023-04-10T05:31:24;5.00;99.90
5556;DHT22;2801;50.972;7.856;2023-04-10T05:33:51;5.10;99.90
5556;DHT22;2801;50.972;7.856;2023-04-10T05:36:18;5.20;99.90
5556;DHT22;2801;50.972;7.856;2023-04-10T05:38:45;5.40;99.90
5556;DHT22;2801;50.972;7.856;2023-04-10T05:41:12;5.50;99.90
5556;DHT22;2801;50.972;7.856;2023-04-10T05:43:39;5.60;99.90
5556;DHT22;2801;50.972;7.856;2023-04-10T05:46:06;5.80;99.90
5556;DHT22;2801;50.972;7.856;2023-04-10T05:48:33;5.90;99.90
5556;DHT22;2801;50.972;7.856;2023-04-10T05:51:00;6.00;99.90
5556;DHT22;2801;50.972;7.856;2023-04-10T05:53:28;6.10;99.90
5556;DHT22;2801;50.972;7.856;2023-04-10T05:55:58;6.20;99.90
5556;DHT22;2801;50.972;7.856;2023-04-10T05:58:26;6.30;99.90
5556;DHT22;2801;50.972;7.856;2023-04-10T06:00:54;6.40;99.90
5556;DHT22;2801;50.972;7.856;2023-04-10T06:03:21;6.50;99.90
5556;DHT22;2801;50.972;7.856;2023-04-10T06:05:49;6.70;99.90
5556;DHT22;2801;50.972;7.856;2023-04-10T06:08:17;7.10;99.90
5556;DHT22;2801;50.972;7.856;2023-04-10T06:10:48;7.60;99.90
5556;DHT22;2801;50.972;7.856;2023-04-10T06:13:15;7.80;99.90
5556;DHT22;2801;50.972;7.856;2023-04-10T06:15:42;7.90;99.90
5556;DHT22;2801;50.972;7.856;2023-04-10T06:18:09;7.80;99.90
5556;DHT22;2801;50.972;7.856;2023-04-10T06:20:36;7.90;99.90
5556;DHT22;2801;50.972;7.856;2023-04-10T06:23:03;8.10;99.90
5556;DHT22;2801;50.972;7.856;2023-04-10T06:25:31;8.30;99.90
5556;DHT22;2801;50.972;7.856;2023-04-10T06:27:58;8.70;99.90
5556;DHT22;2801;50.972;7.856;2023-04-10T06:30:26;9.20;99.90
5556;DHT22;2801;50.972;7.856;2023-04-10T06:32:53;9.80;99.90
5556;DHT22;2801;50.972;7.856;2023-04-10T06:35:20;10.50;99.90
5556;DHT22;2801;50.972;7.856;2023-04-10T06:37:47;11.00;99.90
5556;DHT22;2801;50.972;7.856;2023-04-10T06:40:14;11.70;99.90
5556;DHT22;2801;50.972;7.856;2023-04-10T06:42:42;12.50;99.90
5556;DHT22;2801;50.972;7.856;2023-04-10T06:45:09;13.10;97.80
5556;DHT22;2801;50.972;7.856;2023-04-10T06:47:36;13.70;96.10
5556;DHT22;2801;50.972;7.856;2023-04-10T06:50:04;14.40;98.10
5556;DHT22;2801;50.972;7.856;2023-04-10T06:52:31;15.40;99.00
5556;DHT22;2801;50.972;7.856;2023-04-10T06:54:58;16.30;92.20
5556;DHT22;2801;50.972;7.856;2023-04-10T06:57:26;16.70;93.40
5556;DHT22;2801;50.972;7.856;2023-04-10T06:59:54;16.80;88.30
5556;DHT22;2801;50.972;7.856;2023-04-10T07:02:21;16.60;90.50
5556;DHT22;2801;50.972;7.856;2023-04-10T07:04:48;16.20;87.90
5556;DHT22;2801;50.972;7.856;2023-04-10T07:07:15;15.90;80.70
5556;DHT22;2801;50.972;7.856;2023-04-10T07:09:44;15.70;85.50
5556;DHT22;2801;50.972;7.856;2023-04-10T07:12:11;15.80;90.40
5556;DHT22;2801;50.972;7.856;2023-04-10T07:14:39;15.70;87.80
5556;DHT22;2801;50.972;7.856;2023-04-10T07:17:07;15.80;81.20
5556;DHT22;2801;50.972;7.856;2023-04-10T07:19:34;15.70;80.30
5556;DHT22;2801;50.972;7.856;2023-04-10T07:22:03;15.30;78.20
5556;DHT22;2801;50.972;7.856;2023-04-10T07:24:30;15.40;81.40
5556;DHT22;2801;50.972;7.856;2023-04-10T07:26:58;15.20;81.50
5556;DHT22;2801;50.972;7.856;2023-04-10T07:29:27;15.40;82.60
5556;DHT22;2801;50.972;7.856;2023-04-10T07:31:54;15.60;83.60
5556;DHT22;2801;50.972;7.856;2023-04-10T07:34:21;15.60;77.20
5556;DHT22;2801;50.972;7.856;2023-04-10T07:36:48;16.20;83.80
5556;DHT22;2801;50.972;7.856;2023-04-10T07:39:15;16.30;80.10
5556;DHT22;2801;50.972;7.856;2023-04-10T07:41:42;16.40;81.60
5556;DHT22;2801;50.972;7.856;2023-04-10T07:44:10;16.00;74.50
5556;DHT22;2801;50.972;7.856;2023-04-10T07:46:39;16.10;75.30
5556;DHT22;2801;50.972;7.856;2023-04-10T07:49:06;16.60;77.10
5556;DHT22;2801;50.972;7.856;2023-04-10T07:51:34;17.10;76.50
5556;DHT22;2801;50.972;7.856;2023-04-10T07:54:02;17.50;74.40
5556;DHT22;2801;50.972;7.856;2023-04-10T07:56:30;17.60;71.30
5556;DHT22;2801;50.972;7.856;2023-04-10T07:59:01;17.90;74.80
5556;DHT22;2801;50.972;7.856;2023-04-10T08:01:29;18.00;71.60
5556;DHT22;2801;50.972;7.856;2023-04-10T08:03:56;18.10;71.00
5556;DHT22;2801;50.972;7.856;2023-04-10T08:06:24;17.90;68.60
5556;DHT22;2801;50.972;7.856;2023-04-10T08:08:51;18.00;68.40
5556;DHT22;2801;50.972;7.856;2023-04-10T08:11:29;17.90;71.60
5556;DHT22;2801;50.972;7.856;2023-04-10T08:14:00;18.20;71.90
5556;DHT22;2801;50.972;7.856;2023-04-10T08:16:30;17.90;68.20
5556;DHT22;2801;50.972;7.856;2023-04-10T08:18:59;17.70;69.00
5556;DHT22;2801;50.972;7.856;2023-04-10T08:21:28;17.60;70.30
5556;DHT22;2801;50.972;7.856;2023-04-10T08:23:59;17.40;67.60
5556;DHT22;2801;50.972;7.856;2023-04-10T08:26:28;17.30;70.00
5556;DHT22;2801;50.972;7.856;2023-04-10T08:28:57;17.10;69.40
5556;DHT22;2801;50.972;7.856;2023-04-10T08:31:26;16.90;72.20
5556;DHT22;2801;50.972;7.856;2023-04-10T08:33:55;17.20;68.60
5556;DHT22;2801;50.972;7.856;2023-04-10T08:36:23;17.50;70.30
5556;DHT22;2801;50.972;7.856;2023-04-10T08:38:50;17.80;67.80
5556;DHT22;2801;50.972;7.856;2023-04-10T08:41:18;17.20;66.60
5556;DHT22;2801;50.972;7.856;2023-04-10T08:43:45;16.90;69.30
5556;DHT22;2801;50.972;7.856;2023-04-10T08:46:13;17.10;69.30
5556;DHT22;2801;50.972;7.856;2023-04-10T08:48:51;16.80;72.50
5556;DHT22;2801;50.972;7.856;2023-04-10T08:51:22;16.50;69.30
5556;DHT22;2801;50.972;7.856;2023-04-10T08:54:05;15.90;69.80
5556;DHT22;2801;50.972;7.856;2023-04-10T08:56:34;15.50;72.30
5556;DHT22;2801;50.972;7.856;2023-04-10T08:59:04;15.80;72.70
5556;DHT22;2801;50.972;7.856;2023-04-10T09:01:31;16.20;71.10
5556;DHT22;2801;50.972;7.856;2023-04-10T09:04:00;16.20;68.10
5556;DHT22;2801;50.972;7.856;2023-04-10T09:06:28;16.30;69.40
5556;DHT22;2801;50.972;7.856;2023-04-10T09:08:55;16.10;69.10
5556;DHT22;2801;50.972;7.856;2023-04-10T09:11:22;16.30;71.00
5556;DHT22;2801;50.972;7.856;2023-04-10T09:13:49;16.80;71.60
5556;DHT22;2801;50.972;7.856;2023-04-10T09:16:16;17.40;68.00
5556;DHT22;2801;50.972;7.856;2023-04-10T09:18:48;17.70;67.90
5556;DHT22;2801;50.972;7.856;2023-04-10T09:21:20;17.70;67.00
5556;DHT22;2801;50.972;7.856;2023-04-10T09:23:48;18.00;66.10
5556;DHT22;2801;50.972;7.856;2023-04-10T09:26:27;18.40;65.80
5556;DHT22;2801;50.972;7.856;2023-04-10T09:28:56;18.60;62.10
5556;DHT22;2801;50.972;7.856;2023-04-10T09:34:13;19.30;65.50
5556;DHT22;2801;50.972;7.856;2023-04-10T09:36:59;19.60;60.90
5556;DHT22;2801;50.972;7.856;2023-04-10T09:39:37;19.50;59.90
5556;DHT22;2801;50.972;7.856;2023-04-10T09:42:09;19.60;61.60
5556;DHT22;2801;50.972;7.856;2023-04-10T09:44:41;19.80;61.90
5556;DHT22;2801;50.972;7.856;2023-04-10T09:47:18;19.90;60.50
5556;DHT22;2801;50.972;7.856;2023-04-10T09:49:51;20.00;60.00
5556;DHT22;2801;50.972;7.856;2023-04-10T09:52:44;19.50;60.20
5556;DHT22;2801;50.972;7.856;2023-04-10T09:55:15;18.90;59.60
5556;DHT22;2801;50.972;7.856;2023-04-10T09:57:43;18.60;58.10
5556;DHT22;2801;50.972;7.856;2023-04-10T10:00:11;18.40;57.90
5556;DHT22;2801;50.972;7.856;2023-04-10T10:02:40;18.20;61.00
5556;DHT22;2801;50.972;7.856;2023-04-10T10:05:09;17.90;62.50
5556;DHT22;2801;50.972;7.856;2023-04-10T10:07:37;17.80;60.70
5556;DHT22;2801;50.972;7.856;2023-04-10T10:10:06;17.50;62.10
5556;DHT22;2801;50.972;7.856;2023-04-10T10:12:43;17.40;64.20
5556;DHT22;2801;50.972;7.856;2023-04-10T10:15:22;17.50;63.40
5556;DHT22;2801;50.972;7.856;2023-04-10T10:18:53;17.70;65.70
5556;DHT22;2801;50.972;7.856;2023-04-10T10:20:56;18.00;62.80
5556;DHT22;2801;50.972;7.856;2023-04-10T10:23:24;18.80;61.20
5556;DHT22;2801;50.972;7.856;2023-04-10T10:25:53;19.40;62.00
5556;DHT22;2801;50.972;7.856;2023-04-10T10:28:23;19.50;56.80
5556;DHT22;2801;50.972;7.856;2023-04-10T10:30:54;19.30;58.90
5556;DHT22;2801;50.972;7.856;2023-04-10T10:33:21;19.30;58.40
5556;DHT22;2801;50.972;7.856;2023-04-10T10:35:50;18.60;58.30
5556;DHT22;2801;50.972;7.856;2023-04-10T10:38:18;17.90;57.10
5556;DHT22;2801;50.972;7.856;2023-04-10T10:41:11;17.50;59.80
5556;DHT22;2801;50.972;7.856;2023-04-10T10:43:52;17.80;61.50
5556;DHT22;2801;50.972;7.856;2023-04-10T10:46:43;18.40;60.00
5556;DHT22;2801;50.972;7.856;2023-04-10T10:49:16;18.40;59.80
5556;DHT22;2801;50.972;7.856;2023-04-10T10:51:47;19.00;61.90
5556;DHT22;2801;50.972;7.856;2023-04-10T10:54:33;19.50;59.80
5556;DHT22;2801;50.972;7.856;2023-04-10T11:00:18;20.40;57.60
5556;DHT22;2801;50.972;7.856;2023-04-10T11:11:21;18.80;60.50
5556;DHT22;2801;50.972;7.856;2023-04-10T11:16:40;17.10;59.70
5556;DHT22;2801;50.972;7.856;2023-04-10T11:19:13;16.70;61.80
5556;DHT22;2801;50.972;7.856;2023-04-10T11:22:06;16.60;61.80
5556;DHT22;2801;50.972;7.856;2023-04-10T11:24:59;16.70;62.70
5556;DHT22;2801;50.972;7.856;2023-04-10T11:27:41;17.10;62.30
5556;DHT22;2801;50.972;7.856;2023-04-10T11:30:31;17.40;62.60
5556;DHT22;2801;50.972;7.856;2023-04-10T11:33:00;17.50;61.40
5556;DHT22;2801;50.972;7.856;2023-04-10T11:35:30;17.20;60.50
5556;DHT22;2801;50.972;7.856;2023-04-10T11:41:01;16.90;62.60
5556;DHT22;2801;50.972;7.856;2023-04-10T11:43:30;17.10;62.60
5556;DHT22;2801;50.972;7.856;2023-04-10T11:46:04;17.20;61.70
5556;DHT22;2801;50.972;7.856;2023-04-10T11:48:36;17.10;61.70
5556;DHT22;2801;50.972;7.856;2023-04-10T11:51:07;16.70;61.30
5556;DHT22;2801;50.972;7.856;2023-04-10T11:53:38;16.80;63.40
5556;DHT22;2801;50.972;7.856;2023-04-10T11:56:15;16.90;63.90
5556;DHT22;2801;50.972;7.856;2023-04-10T11:58:43;17.00;63.80
5556;DHT22;2801;50.972;7.856;2023-04-10T12:01:10;16.90;64.20
5556;DHT22;2801;50.972;7.856;2023-04-10T12:03:41;17.10;64.50
5556;DHT22;2801;50.972;7.856;2023-04-10T12:06:11;17.00;61.50
5556;DHT22;2801;50.972;7.856;2023-04-10T12:08:43;16.90;63.90
5556;DHT22;2801;50.972;7.856;2023-04-10T12:11:13;17.10;64.90
5556;DHT22;2801;50.972;7.856;2023-04-10T12:13:42;17.40;64.30
5556;DHT22;2801;50.972;7.856;2023-04-10T12:16:10;17.50;64.80
5556;DHT22;2801;50.972;7.856;2023-04-10T12:18:37;17.30;61.70
5556;DHT22;2801;50.972;7.856;2023-04-10T12:21:05;17.20;64.30
5556;DHT22;2801;50.972;7.856;2023-04-10T12:23:36;17.20;61.80
5556;DHT22;2801;50.972;7.856;2023-04-10T12:26:16;17.20;59.50
5556;DHT22;2801;50.972;7.856;2023-04-10T12:28:52;17.40;61.70
5556;DHT22;2801;50.972;7.856;2023-04-10T12:31:26;17.50;61.70
5556;DHT22;2801;50.972;7.856;2023-04-10T12:33:56;17.40;59.40
5556;DHT22;2801;50.972;7.856;2023-04-10T12:36:25;17.40;62.00
5556;DHT22;2801;50.972;7.856;2023-04-10T12:38:57;17.20;60.70
5556;DHT22;2801;50.972;7.856;2023-04-10T12:41:30;17.10;60.00
5556;DHT22;2801;50.972;7.856;2023-04-10T12:44:12;16.70;59.10
5556;DHT22;2801;50.972;7.856;2023-04-10T12:46:40;16.60;59.90
5556;DHT22;2801;50.972;7.856;2023-04-10T12:49:12;16.80;60.30
5556;DHT22;2801;50.972;7.856;2023-04-10T12:51:45;16.70;59.50
5556;DHT22;2801;50.972;7.856;2023-04-10T12:54:29;16.90;60.20
5556;DHT22;2801;50.972;7.856;2023-04-10T12:56:59;17.00;59.90
5556;DHT22;2801;50.972;7.856;2023-04-10T12:59:28;17.20;60.80
5556;DHT22;2801;50.972;7.856;2023-04-10T13:01:56;17.20;61.50
5556;DHT22;2801;50.972;7.856;2023-04-10T13:04:23;17.00;58.10
5556;DHT22;2801;50.972;7.856;2023-04-10T13:06:51;16.90;58.90
5556;DHT22;2801;50.972;7.856;2023-04-10T13:09:18;17.10;61.00
5556;DHT22;2801;50.972;7.856;2023-04-10T13:11:45;17.20;61.00
5556;DHT22;2801;50.972;7.856;2023-04-10T13:14:16;17.30;59.90
5556;DHT22;2801;50.972;7.856;2023-04-10T13:16:43;17.20;59.90
5556;DHT22;2801;50.972;7.856;2023-04-10T13:19:10;17.30;57.90
5556;DHT22;2801;50.972;7.856;2023-04-10T13:21:38;17.20;58.90
5556;DHT22;2801;50.972;7.856;2023-04-10T13:24:05;17.20;60.70
5556;DHT22;2801;50.972;7.856;2023-04-10T13:26:32;17.20;59.70
5556;DHT22;2801;50.972;7.856;2023-04-10T13:28:59;17.00;59.20
5556;DHT22;2801;50.972;7.856;2023-04-10T13:31:26;17.00;60.10
5556;DHT22;2801;50.972;7.856;2023-04-10T13:33:53;17.00;60.70
5556;DHT22;2801;50.972;7.856;2023-04-10T13:36:20;17.10;61.50
5556;DHT22;2801;50.972;7.856;2023-04-10T13:38:48;17.30;60.00
5556;DHT22;2801;50.972;7.856;2023-04-10T13:41:15;17.50;63.30
5556;DHT22;2801;50.972;7.856;2023-04-10T13:43:42;17.70;59.10
5556;DHT22;2801;50.972;7.856;2023-04-10T13:46:09;17.60;60.10
5556;DHT22;2801;50.972;7.856;2023-04-10T13:48:36;17.70;61.60
5556;DHT22;2801;50.972;7.856;2023-04-10T13:51:07;17.70;60.00
5556;DHT22;2801;50.972;7.856;2023-04-10T13:53:34;17.70;59.40
5556;DHT22;2801;50.972;7.856;2023-04-10T13:56:01;17.50;59.50
5556;DHT22;2801;50.972;7.856;2023-04-10T13:58:28;17.50;59.40
5556;DHT22;2801;50.972;7.856;2023-04-10T14:00:57;17.40;58.80
5556;DHT22;2801;50.972;7.856;2023-04-10T14:03:25;17.30;58.80
5556;DHT22;2801;50.972;7.856;2023-04-10T14:05:53;17.30;59.00
5556;DHT22;2801;50.972;7.856;2023-04-10T14:08:20;17.20;58.00
5556;DHT22;2801;50.972;7.856;2023-04-10T14:10:47;17.10;58.00
5556;DHT22;2801;50.972;7.856;2023-04-10T14:13:17;17.00;57.20
5556;DHT22;2801;50.972;7.856;2023-04-10T14:15:44;17.00;57.70
5556;DHT22;2801;50.972;7.856;2023-04-10T14:18:12;16.90;57.30
5556;DHT22;2801;50.972;7.856;2023-04-10T14:20:43;16.80;58.00
5556;DHT22;2801;50.972;7.856;2023-04-10T14:23:10;16.90;58.90
5556;DHT22;2801;50.972;7.856;2023-04-10T14:25:44;16.70;57.60
5556;DHT22;2801;50.972;7.856;2023-04-10T14:28:12;16.60;58.90
5556;DHT22;2801;50.972;7.856;2023-04-10T14:30:44;16.50;58.50
5556;DHT22;2801;50.972;7.856;2023-04-10T14:33:12;16.30;59.60
5556;DHT22;2801;50.972;7.856;2023-04-10T14:35:39;16.20;58.10
5556;DHT22;2801;50.972;7.856;2023-04-10T14:38:06;16.10;59.40
5556;DHT22;2801;50.972;7.856;2023-04-10T14:40:34;16.20;59.80
5556;DHT22;2801;50.972;7.856;2023-04-10T14:43:02;16.20;60.50
5556;DHT22;2801;50.972;7.856;2023-04-10T14:45:29;16.20;59.70
5556;DHT22;2801;50.972;7.856;2023-04-10T14:47:57;16.20;60.20
5556;DHT22;2801;50.972;7.856;2023-04-10T14:50:24;16.40;60.60
5556;DHT22;2801;50.972;7.856;2023-04-10T14:52:51;16.50;60.40
5556;DHT22;2801;50.972;7.856;2023-04-10T14:55:18;16.70;61.30
5556;DHT22;2801;50.972;7.856;2023-04-10T14:57:45;16.80;61.10
5556;DHT22;2801;50.972;7.856;2023-04-10T15:00:12;16.80;59.70
5556;DHT22;2801;50.972;7.856;2023-04-10T15:02:39;16.60;58.40
5556;DHT22;2801;50.972;7.856;2023-04-10T15:05:07;16.30;59.20
5556;DHT22;2801;50.972;7.856;2023-04-10T15:07:34;16.10;61.50
5556;DHT22;2801;50.972;7.856;2023-04-10T15:10:01;16.10;59.70
5556;DHT22;2801;50.972;7.856;2023-04-10T15:12:28;16.10;61.30
5556;DHT22;2801;50.972;7.856;2023-04-10T15:14:55;16.10;61.70
5556;DHT22;2801;50.972;7.856;2023-04-10T15:17:22;16.00;61.10
5556;DHT22;2801;50.972;7.856;2023-04-10T15:19:50;16.10;62.70
5556;DHT22;2801;50.972;7.856;2023-04-10T15:22:17;16.10;61.00
5556;DHT22;2801;50.972;7.856;2023-04-10T15:24:43;16.10;60.00
5556;DHT22;2801;50.972;7.856;2023-04-10T15:27:18;16.20;63.10
5556;DHT22;2801;50.972;7.856;2023-04-10T15:29:46;16.20;61.90
5556;DHT22;2801;50.972;7.856;2023-04-10T15:32:14;16.40;62.80
5556;DHT22;2801;50.972;7.856;2023-04-10T15:34:41;16.50;63.40
5556;DHT22;2801;50.972;7.856;2023-04-10T15:37:08;16.60;62.90
5556;DHT22;2801;50.972;7.856;2023-04-10T15:39:35;16.50;63.70
5556;DHT22;2801;50.972;7.856;2023-04-10T15:42:05;16.50;62.10
5556;DHT22;2801;50.972;7.856;2023-04-10T15:44:34;16.30;63.10
5556;DHT22;2801;50.972;7.856;2023-04-10T15:47:00;16.20;64.10
5556;DHT22;2801;50.972;7.856;2023-04-10T15:49:29;16.20;64.10
5556;DHT22;2801;50.972;7.856;2023-04-10T15:52:04;16.20;64.80
5556;DHT22;2801;50.972;7.856;2023-04-10T15:54:33;16.10;64.40
5556;DHT22;2801;50.972;7.856;2023-04-10T15:57:00;16.10;64.90
5556;DHT22;2801;50.972;7.856;2023-04-10T15:59:29;16.00;64.80
5556;DHT22;2801;50.972;7.856;2023-04-10T16:01:56;15.80;62.60
5556;DHT22;2801;50.972;7.856;2023-04-10T16:04:23;15.70;64.20
5556;DHT22;2801;50.972;7.856;2023-04-10T16:06:50;15.70;63.90
5556;DHT22;2801;50.972;7.856;2023-04-10T16:09:17;15.50;63.20
5556;DHT22;2801;50.972;7.856;2023-04-10T16:11:48;15.30;62.60
5556;DHT22;2801;50.972;7.856;2023-04-10T16:14:15;15.20;63.00
5556;DHT22;2801;50.972;7.856;2023-04-10T16:16:45;15.10;64.20
5556;DHT22;2801;50.972;7.856;2023-04-10T16:19:12;15.00;64.50
5556;DHT22;2801;50.972;7.856;2023-04-10T16:21:39;15.00;64.70
5556;DHT22;2801;50.972;7.856;2023-04-10T16:24:06;15.00;65.60
5556;DHT22;2801;50.972;7.856;2023-04-10T16:26:33;15.00;65.40
5556;DHT22;2801;50.972;7.856;2023-04-10T16:29:00;15.10;65.70
5556;DHT22;2801;50.972;7.856;2023-04-10T16:31:27;15.20;66.90
5556;DHT22;2801;50.972;7.856;2023-04-10T16:33:54;15.30;67.00
5556;DHT22;2801;50.972;7.856;2023-04-10T16:36:22;15.40;66.10
5556;DHT22;2801;50.972;7.856;2023-04-10T16:38:49;15.50;66.20
5556;DHT22;2801;50.972;7.856;2023-04-10T16:41:16;15.50;65.00
5556;DHT22;2801;50.972;7.856;2023-04-10T16:43:44;15.50;67.10
5556;DHT22;2801;50.972;7.856;2023-04-10T16:46:11;15.60;67.20
5556;DHT22;2801;50.972;7.856;2023-04-10T16:48:38;15.50;65.50
5556;DHT22;2801;50.972;7.856;2023-04-10T16:51:05;15.40;66.10
5556;DHT22;2801;50.972;7.856;2023-04-10T16:53:34;15.30;66.00